This is the latest recevied weather packets stored in our database for station/object VK1KCM-5. If no packets are shown the sender has not sent any weather packets the latest 10 day(s).
| Time | Temp. | Humidity | Pressure | Rain* | Wind** | Luminosity | Snow |
|---|---|---|---|---|---|---|---|
| 1787976503 | 19.44° C | 46% | 1024.9 hPa | 0 mm | - | - | - |
| 1787976243 | 20° C | 48% | 1024.6 hPa | 0 mm | - | - | - |
| 1787975962 | 20° C | 46% | 1024.8 hPa | 0 mm | - | - | - |
| 1787975723 | 19.44° C | 46% | 1025.2 hPa | 0 mm | - | - | - |
| 1787975481 | 19.44° C | 46% | 1025.2 hPa | 0 mm | - | - | - |
| 1787975188 | 17.78° C | 47% | 1025.5 hPa | 0 mm | - | - | - |
| 1787974891 | 17.78° C | 47% | 1025.4 hPa | 0 mm | - | - | - |
| 1787974648 | 18.33° C | 48% | 1025.5 hPa | 0 mm | - | - | - |
| 1787974368 | 17.78° C | 47% | 1025.5 hPa | 0 mm | - | - | - |
| 1787974103 | 18.33° C | 44% | 1025.3 hPa | 0 mm | - | - | - |
| 1787973859 | 18.33° C | 44% | 1025.6 hPa | 0 mm | - | - | - |
| 1787973608 | 18.33° C | 47% | 1025.5 hPa | 0 mm | - | - | - |
| 1787973363 | 18.33° C | 47% | 1025.5 hPa | 0 mm | - | - | - |
| 1787973111 | 18.89° C | 46% | 1025.4 hPa | 0 mm | - | - | - |
| 1787972818 | 17.78° C | 47% | 1025.5 hPa | 0 mm | - | - | - |
| 1787972531 | 18.33° C | 47% | 1025.7 hPa | 0 mm | - | - | - |
| 1787972238 | 18.89° C | 44% | 1025.9 hPa | 0 mm | - | - | - |
| 1787971958 | 18.89° C | 44% | 1025.9 hPa | 0 mm | - | - | - |
| 1787971708 | 17.78° C | 50% | 1026.2 hPa | 0 mm | - | - | - |
| 1787971420 | 17.78° C | 48% | 1026.3 hPa | 0 mm | - | - | - |
| 1787971163 | 18.89° C | 44% | 1026.3 hPa | 0 mm | - | - | - |
| 1787970887 | 18.89° C | 47% | 1026.5 hPa | 0 mm | - | - | - |
| 1787970608 | 18.33° C | 48% | 1026.4 hPa | 0 mm | - | - | - |
| 1787970343 | 18.33° C | 48% | 1026.4 hPa | 0 mm | - | - | - |
| 1787970073 | 18.33° C | 49% | 1026.5 hPa | 0 mm | - | - | - |
* Rain latest hour (hover to see other rain measurements)
** Current wind speed in m/s (hover to see current wind gust speed)